createdAt,value
2018-11-14T00:03:58.779Z,29
2018-11-14T00:13:57.993Z,29
2018-11-14T00:23:57.204Z,29.1
2018-11-14T00:33:56.412Z,29.1
2018-11-14T00:43:55.623Z,29.1
2018-11-14T00:53:54.837Z,29.1
2018-11-14T01:03:54.036Z,29.1
2018-11-14T01:13:53.244Z,29.1
2018-11-14T01:23:52.454Z,29.1
2018-11-14T01:33:51.729Z,29.1
2018-11-14T01:43:50.873Z,29.2
2018-11-14T01:53:50.086Z,29.1
2018-11-14T02:03:49.295Z,29.2
2018-11-14T02:13:48.505Z,29.2
2018-11-14T02:23:47.707Z,29.2
2018-11-14T02:33:46.922Z,29.2
2018-11-14T02:43:46.132Z,29.2
2018-11-14T02:53:45.353Z,29.2
2018-11-14T03:03:44.544Z,29.2
2018-11-14T03:13:43.753Z,29.2
2018-11-14T03:23:42.961Z,29.2
2018-11-14T03:33:42.179Z,29.2
2018-11-14T03:43:41.384Z,26.6
2018-11-14T03:53:40.598Z,24.9
2018-11-14T04:03:39.798Z,25
2018-11-14T04:13:39.009Z,24.9
2018-11-14T04:23:38.211Z,24.4
2018-11-14T04:33:37.420Z,24.4
2018-11-14T04:43:36.634Z,24.6
2018-11-14T04:53:35.841Z,23.6
2018-11-14T05:03:35.049Z,23.4
2018-11-14T05:13:34.271Z,23.2
2018-11-14T05:23:33.473Z,22.9
2018-11-14T05:33:32.689Z,22.8
2018-11-14T05:43:31.941Z,22.8
2018-11-14T05:53:31.160Z,22.8
2018-11-14T06:03:30.368Z,22.8
2018-11-14T06:13:29.528Z,22.8
2018-11-14T06:23:28.777Z,22.9
2018-11-14T06:33:27.954Z,22.9
2018-11-14T06:43:27.155Z,22.9
2018-11-14T06:53:26.374Z,23
2018-11-14T07:03:25.688Z,23.2
2018-11-14T07:13:24.784Z,23.5
2018-11-14T07:23:24.005Z,24.1
2018-11-14T07:33:23.209Z,24.6
2018-11-14T07:43:22.425Z,25.3
2018-11-14T07:53:21.631Z,25.8
2018-11-14T08:03:20.835Z,26.3
2018-11-14T08:13:20.040Z,26.7
2018-11-14T08:23:19.266Z,26.9
2018-11-14T08:33:18.457Z,27.3
2018-11-14T08:43:17.665Z,27.5
2018-11-14T08:53:16.880Z,27.8
2018-11-14T09:03:16.085Z,28
2018-11-14T09:13:15.307Z,28.2
2018-11-14T09:23:14.504Z,28.4
2018-11-14T09:33:13.797Z,28.6
2018-11-14T09:43:12.926Z,28.7
2018-11-14T09:53:12.161Z,28.8
2018-11-14T10:03:11.343Z,28.9
2018-11-14T10:13:10.552Z,28.9
2018-11-14T10:23:09.760Z,29
2018-11-14T10:33:08.968Z,29.1
2018-11-14T10:43:08.387Z,29.1
2018-11-14T10:53:07.390Z,29.2
2018-11-14T11:03:06.596Z,29.3
2018-11-14T11:13:05.796Z,29.3
2018-11-14T11:23:05.004Z,29.3
2018-11-14T11:33:04.211Z,29.3
2018-11-14T11:43:03.527Z,29.3
2018-11-14T11:53:02.632Z,29.3
2018-11-14T12:03:01.834Z,29.3
2018-11-14T12:13:01.053Z,29.3
2018-11-14T12:23:00.258Z,29.3
2018-11-14T12:32:59.466Z,29.2
2018-11-14T12:42:58.668Z,29.2
2018-11-14T12:52:57.881Z,29.1
2018-11-14T13:02:57.089Z,29.1
2018-11-14T13:12:56.303Z,29.1
2018-11-14T13:22:55.508Z,29.1
2018-11-14T13:32:54.715Z,29
2018-11-14T13:42:53.926Z,28.9
2018-11-14T13:52:53.134Z,28.9
2018-11-14T14:02:52.349Z,28.9
2018-11-14T14:12:51.550Z,28.9
2018-11-14T14:22:50.765Z,28.9
2018-11-14T14:32:49.968Z,28.8
2018-11-14T14:42:49.187Z,28.8
2018-11-14T14:52:48.383Z,28.8
2018-11-14T15:02:47.594Z,28.7
2018-11-14T15:12:46.809Z,28.7
2018-11-14T15:22:46.151Z,28.6
2018-11-14T15:32:45.225Z,28.6
2018-11-14T15:42:44.510Z,28.6
2018-11-14T15:52:43.645Z,27.9
2018-11-14T16:02:42.847Z,27.5
2018-11-14T16:12:42.068Z,26.4
2018-11-14T16:22:41.265Z,25.3
2018-11-14T16:32:40.481Z,24.5
2018-11-14T16:42:39.713Z,24.2
2018-11-14T16:52:38.897Z,22.4
2018-11-14T17:02:38.107Z,22.1
2018-11-14T17:12:37.320Z,21.9
2018-11-14T17:22:36.527Z,21.9
2018-11-14T17:32:35.729Z,21.9
2018-11-14T17:42:35.082Z,22
2018-11-14T17:52:34.150Z,21.9
2018-11-14T18:02:33.360Z,21.9
2018-11-14T18:12:32.565Z,21.8
2018-11-14T18:22:31.774Z,21.6
2018-11-14T18:32:30.988Z,21.5
2018-11-14T18:42:30.192Z,21.4
2018-11-14T18:52:29.400Z,21.3
2018-11-14T19:02:28.614Z,21.3
2018-11-14T19:12:27.858Z,21.4
2018-11-14T19:22:27.028Z,21.3
2018-11-14T19:32:26.265Z,21.2
2018-11-14T19:42:25.445Z,21.2
2018-11-14T19:52:24.652Z,21.3
2018-11-14T20:02:23.862Z,21.3
2018-11-14T20:12:23.074Z,21.3
2018-11-14T20:22:22.282Z,21.3
2018-11-14T20:32:21.543Z,21.3
2018-11-14T20:42:20.694Z,20.9
2018-11-14T20:52:19.908Z,20.9
2018-11-14T21:02:19.118Z,21
2018-11-14T21:12:18.327Z,20.9
2018-11-14T21:22:17.537Z,20.9
2018-11-14T21:32:16.743Z,20.9
2018-11-14T21:42:15.947Z,20.9
2018-11-14T21:52:15.209Z,20.9
2018-11-14T22:02:14.368Z,21
2018-11-14T22:12:13.577Z,20.9
2018-11-14T22:22:12.786Z,21
2018-11-14T22:32:11.990Z,20.9
2018-11-14T22:42:11.207Z,20.9
2018-11-14T22:52:10.413Z,20.9
2018-11-14T23:02:09.614Z,20.9
2018-11-14T23:12:08.825Z,20.9
2018-11-14T23:22:08.031Z,20.9
2018-11-14T23:32:07.248Z,20.9
2018-11-14T23:42:06.453Z,20.9
2018-11-14T23:52:05.660Z,20.9
